Time;durP1;ratioP1;P1;durP2;ratioP2;P2;SDS_P1;SDS_P2;PMS_P1;PMS_P2;Temp;Humidity;BMP_temperature;BMP_pressure;BME280_temperature;BME280_humidity;BME280_pressure;Samples;Min_cycle;Max_cycle;Signal;HPM_P1;HPM_P2
2023/08/19 00:01:49;;;;;;;48.93;14.67;;;30.10;57.20;;;;;;5054751;28;20279;-77
2023/08/19 00:04:16;;;;;;;29.77;12.47;;;30.10;57.20;;;;;;5050647;28;20219;-77
2023/08/19 00:06:42;;;;;;;46.70;13.43;;;30.10;57.80;;;;;;5052493;28;20238;-79
2023/08/19 00:09:11;;;;;;;45.13;13.10;;;30.10;57.20;;;;;;5057389;28;20275;-77
2023/08/19 00:11:39;;;;;;;42.17;13.43;;;30.00;57.10;;;;;;5047776;28;20740;-78
2023/08/19 00:14:08;;;;;;;31.97;12.53;;;30.00;57.10;;;;;;5051975;28;20204;-77
2023/08/19 00:16:36;;;;;;;43.40;13.67;;;30.00;57.20;;;;;;5051447;28;20200;-77
2023/08/19 00:19:03;;;;;;;35.03;13.47;;;30.00;57.20;;;;;;5057551;28;20444;-76
2023/08/19 00:21:30;;;;;;;32.70;12.80;;;30.00;57.20;;;;;;5052349;28;20199;-80
2023/08/19 00:23:57;;;;;;;32.77;12.40;;;30.00;57.20;;;;;;5047838;28;20203;-80
2023/08/19 00:26:25;;;;;;;27.93;11.93;;;30.00;57.20;;;;;;5055426;28;20246;-80
2023/08/19 00:28:52;;;;;;;34.10;13.00;;;30.00;57.20;;;;;;5064903;28;20202;-80
2023/08/19 00:31:20;;;;;;;32.97;12.87;;;30.00;57.30;;;;;;5057032;28;20295;-80
2023/08/19 00:33:47;;;;;;;79.50;16.97;;;30.00;57.30;;;;;;5046728;28;20283;-80
2023/08/19 00:36:14;;;;;;;32.60;12.47;;;30.00;57.30;;;;;;5062709;28;20305;-80
2023/08/19 00:38:41;;;;;;;34.30;12.63;;;30.00;57.30;;;;;;5064285;28;20739;-80
2023/08/19 00:41:08;;;;;;;35.60;12.83;;;30.00;57.30;;;;;;5048995;28;20270;-79
2023/08/19 00:43:36;;;;;;;38.87;12.50;;;30.00;57.30;;;;;;5062927;28;20231;-80
2023/08/19 00:46:03;;;;;;;31.33;13.00;;;30.00;57.30;;;;;;5058342;28;20242;-80
2023/08/19 00:48:31;;;;;;;39.53;13.20;;;30.00;57.30;;;;;;5060998;28;20206;-80
2023/08/19 00:50:59;;;;;;;33.20;13.33;;;30.00;57.40;;;;;;5062857;28;20279;-80
2023/08/19 00:53:26;;;;;;;33.03;12.77;;;30.00;57.30;;;;;;5047807;28;20246;-80
2023/08/19 00:55:54;;;;;;;50.47;14.03;;;30.00;57.30;;;;;;5047526;28;20203;-80
2023/08/19 00:58:21;;;;;;;28.60;12.20;;;30.00;57.30;;;;;;5062119;28;20206;-79
2023/08/19 01:00:49;;;;;;;41.90;13.00;;;30.00;57.40;;;;;;5058000;28;20682;-81
2023/08/19 01:03:16;;;;;;;34.87;12.77;;;29.90;57.30;;;;;;5058672;28;20204;-80
2023/08/19 01:05:58;;;;;;;52.33;14.93;;;30.00;57.40;;;;;;5051245;28;20196;-81
2023/08/19 01:08:32;;;;;;;45.37;13.03;;;29.90;57.40;;;;;;5052012;28;20206;-80
2023/08/19 01:11:06;;;;;;;24.87;11.53;;;29.90;57.30;;;;;;5046218;28;20290;-81
2023/08/19 01:13:52;;;;;;;53.33;14.33;;;29.90;57.30;;;;;;5046286;28;20219;-80
2023/08/19 01:16:22;;;;;;;25.13;11.53;;;29.90;57.40;;;;;;5065444;28;20204;-81
2023/08/19 01:18:50;;;;;;;54.13;15.03;;;29.90;57.40;;;;;;5056153;28;20210;-81
2023/08/19 01:21:18;;;;;;;31.93;12.57;;;29.90;57.40;;;;;;5059220;28;20294;-81
2023/08/19 01:23:49;;;;;;;35.77;13.30;;;29.90;57.40;;;;;;5064017;28;20199;-81
2023/08/19 01:26:19;;;;;;;36.03;12.60;;;29.90;57.40;;;;;;5064368;28;20793;-81
2023/08/19 01:28:47;;;;;;;35.43;12.77;;;29.90;57.50;;;;;;5062496;28;20614;-80
2023/08/19 01:31:13;;;;;;;25.30;11.60;;;29.90;57.40;;;;;;5064176;28;20231;-81
2023/08/19 01:33:41;;;;;;;50.67;14.70;;;29.90;57.40;;;;;;5056441;28;20289;-81
2023/08/19 01:36:15;;;;;;;36.80;12.90;;;29.90;57.40;;;;;;5057142;28;20587;-81
2023/08/19 01:38:48;;;;;;;61.10;14.53;;;29.90;57.50;;;;;;5050176;28;20196;-82
2023/08/19 01:41:16;;;;;;;31.87;11.47;;;29.90;57.50;;;;;;5050255;28;20224;-82
2023/08/19 01:43:46;;;;;;;42.37;13.00;;;29.90;57.50;;;;;;5056220;28;20574;-81
2023/08/19 01:46:13;;;;;;;27.63;11.13;;;29.80;57.40;;;;;;5063610;28;20330;-80
2023/08/19 01:48:40;;;;;;;34.73;12.20;;;29.90;57.50;;;;;;5060397;28;20291;-81
2023/08/19 01:51:07;;;;;;;56.93;14.60;;;29.90;57.50;;;;;;5049407;28;20311;-82
2023/08/19 01:53:34;;;;;;;32.70;12.40;;;29.80;57.40;;;;;;5061209;28;20287;-81
2023/08/19 01:56:01;;;;;;;36.83;12.20;;;29.80;57.40;;;;;;5054337;28;20287;-82
2023/08/19 01:58:28;;;;;;;30.53;12.23;;;29.80;57.50;;;;;;5050758;28;20287;-80
2023/08/19 02:00:56;;;;;;;37.70;12.83;;;29.80;58.10;;;;;;5056932;28;20286;-81
2023/08/19 02:03:23;;;;;;;31.70;12.03;;;29.80;57.50;;;;;;5053048;28;20211;-81
2023/08/19 02:05:50;;;;;;;34.53;11.80;;;29.80;57.50;;;;;;5055411;28;20286;-81
2023/08/19 02:08:17;;;;;;;29.43;11.70;;;29.80;57.60;;;;;;5057115;28;20326;-81
2023/08/19 02:10:44;;;;;;;30.10;11.30;;;29.80;57.50;;;;;;5059108;28;20197;-82
2023/08/19 02:13:11;;;;;;;42.57;12.50;;;29.80;57.50;;;;;;5049692;28;20279;-82
2023/08/19 02:15:38;;;;;;;31.57;12.40;;;29.80;57.60;;;;;;5054257;28;20200;-81
2023/08/19 02:18:07;;;;;;;36.83;12.00;;;29.80;57.50;;;;;;5056487;28;20291;-81
2023/08/19 02:20:34;;;;;;;44.23;12.97;;;29.80;57.50;;;;;;5062918;28;20690;-81
2023/08/19 02:23:01;;;;;;;41.70;12.10;;;29.80;57.60;;;;;;5060068;28;20291;-81
2023/08/19 02:25:28;;;;;;;35.50;11.97;;;29.80;57.60;;;;;;5055451;28;20222;-80
2023/08/19 02:27:55;;;;;;;40.17;12.33;;;29.80;58.20;;;;;;5052898;28;20559;-80
2023/08/19 02:30:22;;;;;;;33.43;11.47;;;29.80;57.60;;;;;;5055910;28;20226;-81
2023/08/19 02:32:49;;;;;;;33.20;12.47;;;29.80;57.60;;;;;;5057046;28;20227;-80
2023/08/19 02:35:18;;;;;;;30.60;10.77;;;29.80;58.20;;;;;;5056308;28;20290;-81
2023/08/19 02:37:45;;;;;;;32.30;11.60;;;29.80;57.70;;;;;;5054124;28;20204;-80
2023/08/19 02:40:11;;;;;;;29.37;11.17;;;29.80;57.70;;;;;;5060601;28;20307;-80
2023/08/19 02:42:38;;;;;;;35.17;11.90;;;29.80;57.70;;;;;;5052350;28;20295;-78
2023/08/19 02:45:07;;;;;;;45.77;12.83;;;29.80;57.70;;;;;;5063766;28;20740;-80
2023/08/19 02:47:34;;;;;;;27.13;10.90;;;29.80;57.70;;;;;;5066223;28;20265;-80
2023/08/19 02:50:01;;;;;;;29.37;10.70;;;29.80;57.70;;;;;;5065933;28;20198;-78
2023/08/19 02:52:29;;;;;;;33.23;11.77;;;29.80;57.70;;;;;;5062208;28;20660;-80
2023/08/19 02:54:56;;;;;;;38.10;12.50;;;29.80;57.70;;;;;;5066347;28;20284;-80
2023/08/19 02:57:23;;;;;;;37.73;12.83;;;29.70;57.70;;;;;;5067943;28;20303;-80
2023/08/19 02:59:50;;;;;;;43.17;12.30;;;29.80;57.70;;;;;;5048386;28;20208;-77
2023/08/19 03:02:17;;;;;;;35.70;11.43;;;29.70;57.70;;;;;;5049392;28;20239;-80
2023/08/19 03:04:43;;;;;;;28.57;11.40;;;29.70;57.70;;;;;;5067693;28;20848;-80
2023/08/19 03:07:10;;;;;;;31.70;11.47;;;29.70;57.70;;;;;;5069173;28;20251;-79
2023/08/19 03:09:39;;;;;;;35.80;11.27;;;29.80;57.80;;;;;;5060893;28;20214;-79
2023/08/19 03:12:06;;;;;;;31.40;11.00;;;29.80;57.80;;;;;;5056870;28;20604;-80
2023/08/19 03:14:33;;;;;;;32.77;11.23;;;29.70;57.70;;;;;;5057409;28;20287;-79
2023/08/19 03:17:00;;;;;;;35.00;11.53;;;29.80;57.80;;;;;;5048558;28;20343;-80
2023/08/19 03:19:28;;;;;;;76.00;15.30;;;29.70;57.70;;;;;;5049027;28;20204;-80
2023/08/19 03:21:55;;;;;;;30.70;10.90;;;29.80;57.80;;;;;;5065895;28;20658;-80
2023/08/19 03:24:23;;;;;;;25.97;10.27;;;29.70;57.80;;;;;;5050997;28;20208;-77
2023/08/19 03:26:52;;;;;;;41.63;11.60;;;29.70;57.80;;;;;;5049742;28;20215;-80
2023/08/19 03:29:19;;;;;;;32.03;11.27;;;29.70;57.80;;;;;;5053533;28;20200;-78
2023/08/19 03:31:45;;;;;;;46.43;12.33;;;29.70;57.80;;;;;;5049901;28;20200;-79
2023/08/19 03:34:13;;;;;;;32.97;11.23;;;29.70;57.80;;;;;;5047896;28;20287;-79
2023/08/19 03:36:40;;;;;;;28.87;10.70;;;29.70;57.80;;;;;;5051000;28;20292;-78
2023/08/19 03:39:07;;;;;;;28.63;10.63;;;29.70;57.80;;;;;;5068563;28;20207;-79
2023/08/19 03:41:33;;;;;;;29.03;10.37;;;29.70;57.90;;;;;;5068158;28;20227;-80
2023/08/19 03:44:02;;;;;;;44.67;12.13;;;29.70;57.80;;;;;;5053562;28;20201;-79
2023/08/19 03:46:29;;;;;;;35.67;11.43;;;29.70;57.90;;;;;;5059570;28;20195;-80
2023/08/19 03:48:56;;;;;;;31.97;10.73;;;29.70;57.90;;;;;;5060730;28;20286;-79
2023/08/19 03:51:23;;;;;;;34.43;11.50;;;29.70;57.90;;;;;;5061219;28;20204;-80
2023/08/19 03:53:50;;;;;;;29.57;10.03;;;29.70;57.90;;;;;;5048391;28;20191;-80
2023/08/19 03:56:17;;;;;;;30.33;10.70;;;29.70;57.90;;;;;;5050523;28;20200;-79
2023/08/19 03:58:46;;;;;;;27.90;9.60;;;29.70;57.90;;;;;;5053383;28;20284;-80
2023/08/19 04:01:14;;;;;;;24.77;9.97;;;29.60;57.90;;;;;;5048398;28;20315;-80
2023/08/19 04:03:41;;;;;;;44.00;11.63;;;29.70;57.90;;;;;;5047525;28;20254;-79
2023/08/19 04:06:08;;;;;;;29.40;10.23;;;29.70;58.00;;;;;;5053586;28;20257;-80
2023/08/19 04:08:35;;;;;;;30.00;10.63;;;29.60;57.90;;;;;;5053237;28;20327;-80
2023/08/19 04:11:05;;;;;;;29.37;10.50;;;29.70;58.00;;;;;;5048146;28;20280;-80
2023/08/19 04:13:33;;;;;;;44.90;11.47;;;29.60;58.00;;;;;;5060522;28;20291;-80
2023/08/19 04:16:04;;;;;;;25.60;9.77;;;29.60;58.00;;;;;;5049891;28;20275;-79
2023/08/19 04:18:33;;;;;;;29.77;10.07;;;29.70;58.00;;;;;;5059189;28;20262;-80
2023/08/19 04:21:04;;;;;;;31.17;10.57;;;29.60;58.00;;;;;;5056106;28;20196;-80
2023/08/19 04:23:31;;;;;;;33.27;10.00;;;29.60;58.00;;;;;;5059321;28;20583;-80
2023/08/19 04:25:57;;;;;;;28.20;10.27;;;29.60;58.00;;;;;;5048261;28;20250;-80
2023/08/19 04:28:25;;;;;;;22.50;9.90;;;29.60;58.00;;;;;;5061778;28;20346;-80
2023/08/19 04:30:53;;;;;;;51.40;12.20;;;29.60;58.00;;;;;;5049254;28;20202;-79
2023/08/19 04:33:20;;;;;;;31.20;10.27;;;29.60;58.00;;;;;;5046461;28;20661;-79
2023/08/19 04:35:49;;;;;;;32.60;10.63;;;29.60;58.00;;;;;;5056962;28;20206;-79
2023/08/19 04:38:16;;;;;;;31.47;9.63;;;29.60;58.00;;;;;;5052453;28;20656;-80
2023/08/19 04:40:44;;;;;;;36.57;11.00;;;29.60;58.60;;;;;;5068503;28;20310;-79
2023/08/19 04:43:12;;;;;;;46.50;11.70;;;29.60;58.10;;;;;;5062525;28;20191;-78
2023/08/19 04:45:39;;;;;;;32.95;10.43;;;29.60;58.00;;;;;;5059903;28;21330;-77
2023/08/19 04:48:06;;;;;;;29.43;9.80;;;29.60;58.00;;;;;;5067941;28;20302;-77
2023/08/19 04:50:33;;;;;;;31.80;9.87;;;29.60;58.00;;;;;;5052974;28;20690;-78
2023/08/19 04:53:02;;;;;;;34.03;10.67;;;29.60;58.00;;;;;;5046861;28;20299;-78
2023/08/19 04:55:29;;;;;;;37.83;10.30;;;29.60;58.00;;;;;;5047890;28;20683;-78
2023/08/19 04:57:56;;;;;;;29.20;10.20;;;29.60;58.00;;;;;;5066126;28;20290;-78
2023/08/19 05:00:23;;;;;;;26.23;9.30;;;29.60;58.00;;;;;;5067975;28;20297;-77
2023/08/19 05:02:50;;;;;;;33.07;10.00;;;29.60;58.00;;;;;;5056968;28;20203;-78
2023/08/19 05:05:17;;;;;;;32.27;9.97;;;29.60;58.00;;;;;;5049557;28;20200;-78
2023/08/19 05:07:44;;;;;;;37.90;10.57;;;29.60;58.00;;;;;;5047850;28;20316;-77
2023/08/19 05:10:12;;;;;;;25.57;8.93;;;29.60;58.10;;;;;;5058788;28;20230;-78
2023/08/19 05:12:40;;;;;;;36.20;10.43;;;29.60;58.00;;;;;;5059798;28;20206;-77
2023/08/19 05:15:08;;;;;;;26.33;9.33;;;29.60;58.00;;;;;;5054088;28;20204;-78
2023/08/19 05:17:34;;;;;;;26.57;9.50;;;29.60;58.00;;;;;;5051888;28;20287;-77
2023/08/19 05:20:01;;;;;;;27.27;8.83;;;29.60;58.10;;;;;;5063796;28;20218;-77
2023/08/19 05:22:28;;;;;;;31.60;9.77;;;29.60;58.10;;;;;;5058375;28;20288;-77
2023/08/19 05:24:55;;;;;;;51.07;11.33;;;29.60;58.10;;;;;;5049847;28;20200;-77
2023/08/19 05:27:24;;;;;;;31.83;10.00;;;29.60;58.10;;;;;;5050730;28;20212;-77
2023/08/19 05:29:51;;;;;;;43.33;11.07;;;29.60;58.10;;;;;;5050109;28;20196;-77
2023/08/19 05:32:18;;;;;;;27.33;9.37;;;29.60;58.10;;;;;;5050741;28;20228;-78
2023/08/19 05:34:45;;;;;;;35.37;10.30;;;29.60;58.60;;;;;;5050174;28;21079;-77
2023/08/19 05:37:12;;;;;;;24.63;8.70;;;29.60;58.10;;;;;;5051115;28;20200;-78
2023/08/19 05:39:39;;;;;;;30.80;9.87;;;29.60;58.10;;;;;;5050241;28;20220;-77
2023/08/19 05:42:06;;;;;;;27.03;9.13;;;29.60;58.10;;;;;;5050981;28;20291;-77
2023/08/19 05:44:35;;;;;;;45.23;10.43;;;29.60;58.10;;;;;;5059022;28;20258;-78
2023/08/19 05:47:01;;;;;;;33.93;10.30;;;29.60;58.20;;;;;;5060343;28;20195;-78
2023/08/19 05:49:28;;;;;;;27.77;9.17;;;29.60;58.20;;;;;;5049820;28;20578;-77
2023/08/19 05:51:55;;;;;;;37.17;10.50;;;29.60;58.20;;;;;;5050254;28;20283;-77
2023/08/19 05:54:22;;;;;;;22.60;9.03;;;29.60;58.20;;;;;;5054907;28;20210;-78
2023/08/19 05:56:49;;;;;;;28.87;9.37;;;29.60;58.20;;;;;;5062848;28;20291;-78
2023/08/19 05:59:16;;;;;;;38.03;9.90;;;29.60;58.30;;;;;;5050156;28;20295;-78
2023/08/19 06:01:44;;;;;;;26.47;9.27;;;29.60;58.30;;;;;;5064224;28;20282;-78
2023/08/19 06:04:11;;;;;;;27.77;9.23;;;29.60;58.30;;;;;;5059219;28;20287;-77
2023/08/19 06:06:38;;;;;;;31.60;9.20;;;29.60;58.30;;;;;;5056362;28;20322;-78
2023/08/19 06:09:05;;;;;;;43.60;10.50;;;29.60;58.30;;;;;;5063944;28;20223;-78
2023/08/19 06:11:32;;;;;;;47.17;10.70;;;29.60;58.30;;;;;;5057192;28;20743;-78
2023/08/19 06:13:59;;;;;;;31.77;10.20;;;29.60;58.30;;;;;;5050190;28;20196;-77
2023/08/19 06:16:26;;;;;;;32.10;9.00;;;29.60;58.30;;;;;;5051625;28;20195;-77
2023/08/19 06:18:54;;;;;;;24.20;8.97;;;29.60;58.30;;;;;;5057422;28;20678;-78
2023/08/19 06:21:21;;;;;;;28.87;9.73;;;29.60;58.30;;;;;;5054553;28;20195;-78
2023/08/19 06:23:48;;;;;;;31.37;9.87;;;29.60;58.30;;;;;;5070478;28;20282;-78
2023/08/19 06:26:15;;;;;;;32.53;9.23;;;29.60;58.30;;;;;;5066047;28;20283;-78
2023/08/19 06:28:42;;;;;;;28.07;9.17;;;29.60;58.30;;;;;;5050380;28;20212;-78
2023/08/19 06:31:09;;;;;;;45.13;11.57;;;29.60;58.30;;;;;;5053645;28;20200;-75
2023/08/19 06:33:37;;;;;;;64.30;12.40;;;29.60;58.40;;;;;;5047181;28;20204;-79
2023/08/19 06:36:07;;;;;;;44.53;9.97;;;29.60;58.40;;;;;;5066930;28;20311;-78
2023/08/19 06:38:35;;;;;;;42.50;11.00;;;29.60;58.30;;;;;;5049800;28;20198;-78
2023/08/19 06:41:03;;;;;;;36.83;9.70;;;29.60;58.30;;;;;;5049805;28;20260;-78
2023/08/19 06:43:32;;;;;;;26.63;9.30;;;29.60;58.40;;;;;;5053379;28;21962;-78
2023/08/19 06:46:01;;;;;;;27.70;9.03;;;29.60;58.40;;;;;;5049808;28;20563;-79
2023/08/19 06:48:28;;;;;;;33.60;8.57;;;29.60;58.40;;;;;;5060208;28;20231;-77
2023/08/19 06:50:56;;;;;;;24.27;8.40;;;29.60;58.40;;;;;;5053020;28;20299;-79
2023/08/19 06:53:25;;;;;;;27.83;8.60;;;29.60;58.40;;;;;;5049936;28;20299;-78
2023/08/19 06:56:05;;;;;;;33.70;9.67;;;29.60;58.50;;;;;;5063471;28;20206;-78
2023/08/19 06:58:39;;;;;;;26.60;7.97;;;29.60;58.50;;;;;;5048287;28;20204;-77
2023/08/19 07:01:22;;;;;;;30.43;9.03;;;29.60;58.50;;;;;;5049600;28;20283;-79
2023/08/19 07:03:52;;;;;;;21.20;8.73;;;29.60;58.50;;;;;;5050359;28;20287;-78
2023/08/19 07:06:21;;;;;;;28.63;8.27;;;29.60;58.50;;;;;;5054210;28;20204;-79
2023/08/19 07:08:50;;;;;;;42.67;10.00;;;29.60;58.50;;;;;;5068268;28;20310;-79
2023/08/19 07:11:18;;;;;;;39.13;9.33;;;29.60;58.50;;;;;;5052617;28;20231;-78
2023/08/19 07:13:45;;;;;;;33.93;9.03;;;29.60;58.50;;;;;;5068947;28;20184;-79
2023/08/19 07:16:15;;;;;;;47.07;10.13;;;29.60;58.50;;;;;;5050377;28;20280;-78
2023/08/19 07:18:44;;;;;;;27.90;8.70;;;29.70;58.60;;;;;;5058019;28;20205;-79
2023/08/19 07:21:12;;;;;;;35.27;8.80;;;29.70;58.60;;;;;;5048773;28;20850;-79
2023/08/19 07:23:41;;;;;;;69.13;12.07;;;29.70;58.60;;;;;;5047946;28;20192;-78
2023/08/19 07:26:10;;;;;;;26.23;7.97;;;29.70;58.60;;;;;;5053454;28;20211;-86
2023/08/19 07:28:37;;;;;;;32.37;8.97;;;29.70;58.70;;;;;;5050492;28;20220;-78
2023/08/19 07:31:05;;;;;;;28.90;8.97;;;29.80;58.80;;;;;;5065819;28;20564;-81
2023/08/19 07:33:32;;;;;;;73.40;13.13;;;29.80;58.80;;;;;;5060712;28;20302;-80
2023/08/19 07:35:59;;;;;;;33.60;9.47;;;29.70;58.70;;;;;;5063472;28;20254;-77
2023/08/19 07:38:25;;;;;;;28.87;8.43;;;29.80;58.80;;;;;;5054944;28;20238;-75
2023/08/19 07:40:52;;;;;;;98.77;14.37;;;29.80;58.80;;;;;;5062336;28;20200;-76
2023/08/19 07:43:21;;;;;;;23.97;6.97;;;29.80;58.80;;;;;;5063847;28;20667;-75
2023/08/19 07:45:48;;;;;;;25.43;7.03;;;29.80;58.80;;;;;;5060015;28;20280;-75
2023/08/19 07:48:15;;;;;;;26.00;7.73;;;29.80;58.70;;;;;;5055151;28;20317;-76
2023/08/19 07:50:42;;;;;;;28.10;7.70;;;29.80;58.60;;;;;;5061147;28;20230;-77
2023/08/19 07:53:08;;;;;;;30.53;7.77;;;29.80;58.60;;;;;;5047841;28;20228;-77
2023/08/19 07:55:35;;;;;;;29.47;7.50;;;29.80;58.60;;;;;;5058954;28;20204;-76
2023/08/19 07:58:02;;;;;;;22.97;7.37;;;29.90;58.60;;;;;;5053295;28;20291;-81
2023/08/19 08:00:31;;;;;;;22.23;6.90;;;29.80;58.50;;;;;;5048394;28;20228;-79
2023/08/19 08:02:58;;;;;;;30.07;7.70;;;29.90;58.60;;;;;;5051961;28;20844;-79
2023/08/19 08:05:25;;;;;;;25.77;7.80;;;29.90;58.60;;;;;;5055929;28;20291;-81
2023/08/19 08:07:52;;;;;;;31.53;8.17;;;29.80;58.50;;;;;;5052570;28;20264;-80
2023/08/19 08:10:19;;;;;;;25.17;7.07;;;29.80;58.50;;;;;;5056867;28;20195;-78
2023/08/19 08:12:46;;;;;;;30.87;8.33;;;29.80;58.50;;;;;;5049069;28;20279;-79
2023/08/19 08:15:13;;;;;;;36.17;8.27;;;29.80;58.50;;;;;;5048658;28;20265;-79
2023/08/19 08:17:42;;;;;;;25.33;7.17;;;29.80;58.50;;;;;;5063105;28;20203;-77
2023/08/19 08:20:09;;;;;;;25.03;7.03;;;29.80;58.50;;;;;;5059446;28;20203;-79
2023/08/19 08:22:36;;;;;;;22.33;6.77;;;29.80;58.50;;;;;;5049964;28;20282;-79
2023/08/19 08:25:05;;;;;;;21.83;6.10;;;29.80;58.50;;;;;;5047262;28;20235;-79
2023/08/19 08:27:34;;;;;;;21.73;6.20;;;29.80;58.50;;;;;;5061566;28;20568;-79
2023/08/19 08:30:01;;;;;;;31.27;7.30;;;29.80;58.40;;;;;;5056669;28;20723;-78
2023/08/19 08:32:27;;;;;;;28.23;7.20;;;29.80;58.40;;;;;;5052265;28;20682;-79
2023/08/19 08:34:56;;;;;;;27.37;6.97;;;29.80;58.30;;;;;;5067838;28;20298;-77
2023/08/19 08:37:23;;;;;;;26.97;7.10;;;29.80;58.30;;;;;;5050351;28;20309;-79
2023/08/19 08:39:50;;;;;;;27.23;6.60;;;29.80;58.30;;;;;;5047251;28;20711;-78
2023/08/19 08:42:17;;;;;;;24.10;6.57;;;29.80;58.30;;;;;;5048140;28;20330;-76
2023/08/19 08:44:47;;;;;;;31.33;7.03;;;29.80;58.30;;;;;;5053328;28;20196;-78
2023/08/19 08:47:15;;;;;;;29.43;7.00;;;29.80;58.40;;;;;;5060301;28;20203;-78
2023/08/19 08:49:45;;;;;;;44.53;8.77;;;29.80;58.40;;;;;;5051473;28;20775;-77
2023/08/19 08:52:13;;;;;;;43.07;8.33;;;29.80;58.50;;;;;;5050799;28;20232;-79
2023/08/19 08:54:43;;;;;;;38.40;8.10;;;29.80;58.50;;;;;;5059260;28;20195;-79
2023/08/19 08:57:12;;;;;;;39.03;8.17;;;29.70;58.50;;;;;;5049644;28;20200;-78
2023/08/19 08:59:39;;;;;;;33.10;7.57;;;29.80;58.60;;;;;;5065605;28;20207;-78
2023/08/19 09:02:06;;;;;;;22.77;6.23;;;29.80;58.60;;;;;;5058242;28;20291;-77
2023/08/19 09:04:35;;;;;;;26.13;6.77;;;29.80;58.60;;;;;;5046676;28;20204;-79
2023/08/19 09:07:11;;;;;;;26.10;6.30;;;29.80;58.80;;;;;;5047452;28;20291;-76
2023/08/19 09:09:42;;;;;;;29.20;7.57;;;29.80;58.80;;;;;;5061739;28;20276;-75
2023/08/19 09:12:14;;;;;;;44.83;8.50;;;29.80;58.80;;;;;;5046368;28;20291;-74
2023/08/19 09:14:43;;;;;;;72.97;11.07;;;29.80;58.80;;;;;;5057697;28;20230;-77
2023/08/19 09:17:12;;;;;;;39.87;8.17;;;29.90;58.80;;;;;;5057578;28;20203;-76
2023/08/19 09:19:39;;;;;;;26.23;7.27;;;29.90;58.80;;;;;;5057958;28;20203;-76
2023/08/19 09:22:20;;;;;;;35.27;7.23;;;29.90;58.80;;;;;;5053235;28;20796;-76
2023/08/19 09:24:49;;;;;;;31.17;7.20;;;30.00;58.80;;;;;;5046382;28;20234;-77
2023/08/19 09:27:19;;;;;;;22.53;6.40;;;30.00;58.80;;;;;;5048072;28;20210;-76
2023/08/19 09:29:50;;;;;;;72.63;10.40;;;30.00;58.80;;;;;;5045374;28;20220;-77
2023/08/19 09:32:17;;;;;;;22.10;6.30;;;30.00;58.80;;;;;;5053406;28;20200;-76
2023/08/19 09:34:44;;;;;;;34.10;7.37;;;30.10;58.80;;;;;;5051680;28;20207;-75
2023/08/19 09:37:11;;;;;;;31.43;7.27;;;30.10;58.70;;;;;;5051347;28;20200;-75
2023/08/19 09:39:38;;;;;;;24.43;6.27;;;30.10;58.80;;;;;;5045788;28;20585;-76
2023/08/19 09:42:10;;;;;;;36.47;7.27;;;30.20;58.70;;;;;;5046735;28;20204;-78
2023/08/19 09:44:41;;;;;;;43.23;8.17;;;30.20;58.70;;;;;;5046782;28;20696;-76
2023/08/19 09:47:08;;;;;;;35.97;7.30;;;30.20;58.70;;;;;;5046384;28;22081;-77
2023/08/19 09:49:36;;;;;;;40.67;7.77;;;30.20;58.60;;;;;;5048705;28;20228;-76
2023/08/19 09:52:03;;;;;;;21.13;5.90;;;30.20;58.60;;;;;;5051561;28;20653;-76
2023/08/19 09:54:31;;;;;;;52.00;9.07;;;30.20;58.60;;;;;;5059377;28;20231;-77
2023/08/19 09:56:59;;;;;;;25.53;6.17;;;30.20;58.60;;;;;;5050580;28;20223;-76
2023/08/19 09:59:28;;;;;;;32.13;7.07;;;30.30;58.60;;;;;;5059261;28;20286;-75
2023/08/19 10:01:55;;;;;;;38.00;7.87;;;30.30;58.60;;;;;;5050167;28;20287;-76
2023/08/19 10:04:22;;;;;;;37.23;7.70;;;30.20;58.50;;;;;;5061903;28;20632;-76
2023/08/19 10:06:52;;;;;;;23.67;6.37;;;30.30;58.50;;;;;;5052175;28;20200;-77
2023/08/19 10:09:24;;;;;;;24.53;5.87;;;30.30;58.50;;;;;;5058338;28;20817;-76
2023/08/19 10:11:54;;;;;;;21.73;5.83;;;30.30;58.50;;;;;;5061921;28;20211;-76
2023/08/19 10:14:30;;;;;;;29.53;6.50;;;30.30;58.50;;;;;;5057777;28;20326;-76
2023/08/19 10:17:00;;;;;;;39.33;7.57;;;30.30;58.50;;;;;;5050919;28;20211;-75
2023/08/19 10:19:29;;;;;;;33.27;7.00;;;30.30;58.50;;;;;;5054272;28;20208;-76
2023/08/19 10:22:00;;;;;;;29.17;6.63;;;30.30;58.50;;;;;;5066851;28;20291;-75
2023/08/19 10:24:27;;;;;;;25.40;6.87;;;30.30;58.50;;;;;;5058551;28;20297;-76
2023/08/19 10:26:55;;;;;;;36.17;7.90;;;30.30;58.50;;;;;;5050034;28;20295;-75
2023/08/19 10:29:22;;;;;;;26.17;6.37;;;30.30;58.50;;;;;;5050623;28;20228;-76
2023/08/19 10:31:50;;;;;;;18.03;5.53;;;30.30;58.50;;;;;;5053516;28;20196;-75
2023/08/19 10:34:25;;;;;;;48.60;8.43;;;30.30;58.50;;;;;;5048516;28;20211;-77
2023/08/19 10:37:08;;;;;;;21.40;5.90;;;30.30;58.50;;;;;;5050919;28;20200;-76
2023/08/19 10:39:36;;;;;;;37.90;7.23;;;30.40;58.50;;;;;;5051911;28;20314;-76
2023/08/19 10:42:03;;;;;;;38.87;7.47;;;30.40;58.50;;;;;;5067190;28;20200;-75
2023/08/19 10:44:33;;;;;;;28.07;6.17;;;30.40;58.50;;;;;;5061064;28;20228;-76
2023/08/19 10:47:13;;;;;;;27.40;6.37;;;30.40;58.60;;;;;;5050349;28;20208;-75
2023/08/19 10:49:40;;;;;;;25.20;6.10;;;30.40;58.50;;;;;;5059058;28;20223;-75
2023/08/19 10:52:07;;;;;;;23.20;6.00;;;30.40;58.50;;;;;;5061856;28;20929;-75
2023/08/19 10:54:38;;;;;;;26.67;6.33;;;30.50;58.50;;;;;;5049694;28;20266;-75
2023/08/19 10:57:14;;;;;;;27.40;6.67;;;30.50;58.50;;;;;;5050468;28;20251;-75
2023/08/19 10:59:43;;;;;;;38.73;7.43;;;30.50;58.40;;;;;;5053063;28;20234;-76
2023/08/19 11:02:13;;;;;;;24.00;6.00;;;30.50;58.40;;;;;;5053172;28;20214;-77
2023/08/19 11:04:41;;;;;;;22.47;6.20;;;30.50;58.40;;;;;;5057404;28;20295;-75
2023/08/19 11:07:08;;;;;;;22.63;5.80;;;30.50;58.30;;;;;;5051200;28;20204;-76
2023/08/19 11:09:35;;;;;;;27.67;6.33;;;30.60;58.40;;;;;;5049945;28;20230;-76
2023/08/19 11:12:03;;;;;;;28.13;6.33;;;30.50;58.30;;;;;;5056896;28;20207;-78
2023/08/19 11:14:30;;;;;;;27.93;6.13;;;30.50;58.30;;;;;;5055433;28;20219;-76
2023/08/19 11:16:57;;;;;;;28.90;6.63;;;30.50;58.30;;;;;;5055498;28;20232;-76
2023/08/19 11:19:26;;;;;;;29.37;6.00;;;30.50;58.30;;;;;;5048241;28;20234;-76
2023/08/19 11:21:53;;;;;;;40.00;7.37;;;30.50;58.30;;;;;;5048795;28;20731;-76
2023/08/19 11:24:20;;;;;;;23.93;5.90;;;30.50;58.30;;;;;;5060176;28;20690;-76
2023/08/19 11:26:49;;;;;;;30.63;6.40;;;30.50;58.30;;;;;;5048080;28;20636;-76
2023/08/19 11:29:16;;;;;;;19.13;5.37;;;30.50;58.30;;;;;;5053158;28;20321;-75
2023/08/19 11:31:44;;;;;;;35.00;7.23;;;30.50;58.30;;;;;;5054273;28;20204;-76
2023/08/19 11:34:12;;;;;;;25.33;5.87;;;30.50;58.30;;;;;;5054287;28;20239;-76
2023/08/19 11:36:44;;;;;;;26.10;6.03;;;30.50;58.30;;;;;;5062529;28;20279;-76
2023/08/19 11:39:11;;;;;;;25.67;6.07;;;30.40;58.20;;;;;;5066328;28;20253;-76
2023/08/19 11:41:38;;;;;;;30.43;6.37;;;30.40;58.20;;;;;;5062480;28;20294;-76
2023/08/19 11:44:07;;;;;;;24.67;6.23;;;30.40;58.80;;;;;;5065268;28;20210;-76
2023/08/19 11:46:35;;;;;;;25.87;6.03;;;30.40;58.30;;;;;;5061398;28;20678;-77
2023/08/19 11:49:05;;;;;;;38.60;7.30;;;30.40;58.30;;;;;;5054917;28;20235;-77
2023/08/19 11:51:32;;;;;;;18.03;5.57;;;30.40;58.40;;;;;;5067972;28;20282;-77
2023/08/19 11:54:04;;;;;;;25.53;6.90;;;30.40;59.00;;;;;;5064760;28;20660;-77
2023/08/19 11:56:44;;;;;;;20.73;5.53;;;30.50;58.50;;;;;;5049442;28;20235;-75
2023/08/19 11:59:10;;;;;;;20.93;5.53;;;30.50;58.50;;;;;;5047194;28;20202;-76
2023/08/19 12:01:38;;;;;;;55.30;8.73;;;30.50;58.40;;;;;;5043530;28;20290;-76
2023/08/19 12:04:11;;;;;;;35.90;7.23;;;30.50;58.40;;;;;;5057972;28;20206;-75
2023/08/19 12:06:38;;;;;;;30.57;7.10;;;30.50;58.40;;;;;;5058137;28;20199;-73
2023/08/19 12:09:07;;;;;;;21.27;5.50;;;30.50;58.40;;;;;;5058455;28;20283;-75
2023/08/19 12:11:35;;;;;;;26.00;6.23;;;30.50;58.50;;;;;;5068649;28;20204;-74
2023/08/19 12:14:02;;;;;;;29.20;6.20;;;30.60;58.60;;;;;;5057188;28;20203;-72
2023/08/19 12:16:29;;;;;;;23.23;5.57;;;30.50;58.50;;;;;;5047957;28;20666;-77
2023/08/19 12:18:58;;;;;;;30.07;6.70;;;30.60;58.60;;;;;;5052515;28;20215;-75
2023/08/19 12:21:25;;;;;;;27.33;5.80;;;30.60;58.60;;;;;;5051539;28;20219;-75
2023/08/19 12:23:52;;;;;;;28.00;6.70;;;30.60;58.60;;;;;;5047638;28;20207;-74
2023/08/19 12:26:21;;;;;;;26.23;6.10;;;30.70;58.70;;;;;;5049638;28;20200;-77
2023/08/19 12:28:48;;;;;;;36.30;6.90;;;30.70;58.70;;;;;;5054953;28;20203;-74
2023/08/19 12:31:15;;;;;;;24.93;6.30;;;30.70;58.70;;;;;;5054745;28;20344;-74
2023/08/19 12:33:42;;;;;;;26.43;5.87;;;30.80;58.70;;;;;;5061858;28;20204;-75
2023/08/19 12:36:09;;;;;;;40.17;7.93;;;30.80;58.70;;;;;;5056227;28;20233;-74
2023/08/19 12:38:37;;;;;;;31.27;6.57;;;30.90;58.60;;;;;;5048295;28;20195;-74